Terminal Aerodrome Forecast
Issued by NWS

Home | Current Version | Previous Version | Text Only | Print | Product List | Glossary On
Versions: 1 2 3 4 5 6 7 8 9 10 11 12 13 14 15 16 17 18 19 20 21 22 23 24 25 26
000
FTUS44 KOUN 301121
TAFHBR
TAF
KHBR 301121Z 3012/3112 01015G22KT P6SM SCT015 BKN100
      TEMPO 3012/3016 BKN015
     FM301600 35014KT P6SM BKN040
     FM302100 03010KT P6SM SCT250
     FM310700 VRB04KT P6SM SCT250=

USA.gov is the U.S. government's official web portal to all federal, state and local government web resources and services.